Terminal Aerodrome Forecast
Issued by NWS

Home | Current Version | Previous Version | Text Only | Print | Product List | Glossary On
Versions: 1 2 3 4 5 6 7 8 9 10 11 12 13 14 15 16 17 18 19 20 21 22 23
142
FTUS41 KGYX 182220 AAD
TAFRKD
TAF AMD
KRKD 182220Z 1822/1918 09007KT P6SM -RA OVC004
     FM182300 10006KT 2SM -RA BR BKN015 OVC030
     FM190200 12009KT 1SM SHRA BR OVC003
     FM190600 18009KT 1/2SM FG OVC001
     FM191500 13006KT 3SM BR BKN008 OVC012
      AMD LTD TO CLD VIS AND WIND=

USA.gov is the U.S. government's official web portal to all federal, state and local government web resources and services.